Saint Stephens, Alabama
Current Conditions -  °F | °C
As of 9:13 AM on Sunday 21 Dec 2014 (Local Time) from KMOB Reporting Station
Haze Haze  
Wind Chill: 53°   Ceiling: 800
Heat Index: 53°   Visibility: 3mi
Dew Point: 50°   Wind: 8mph
Humidity: 89%   Direction: 60°ENE
Pressure: 30.12"   Gusts: NA
Location:  31.54°N, 88.06°W
Report Text: KMOB 211513Z 06007KT 3SM BR OVC008 12/10 A3012 RMK AO2 T01170100 $
Loading
Personal Weather Stations






























Interactive Weather Map New forecast layout! Learn more

10-Day Weather Forecast

Advertisements
Track Severe Weather on mobile